Time;durP1;ratioP1;P1;durP2;ratioP2;P2;SDS_P1;SDS_P2;PMS_P1;PMS_P2;Temp;Humidity;BMP_temperature;BMP_pressure;BME280_temperature;BME280_humidity;BME280_pressure;Samples;Min_cycle;Max_cycle;Signal;HPM_P1;HPM_P2
2023/11/08 00:02:22;;;;;;;1.65;1.55;;;11.60;99.90;;;;;;5035333;28;20252;-78
2023/11/08 00:04:49;;;;;;;2.67;1.92;;;11.60;99.90;;;;;;5035448;28;20226;-81
2023/11/08 00:07:16;;;;;;;1.20;1.10;;;11.60;99.90;;;;;;5034823;28;20225;-78
2023/11/08 00:09:44;;;;;;;2.00;1.60;;;11.70;99.90;;;;;;5035282;28;20249;-80
2023/11/08 00:12:13;;;;;;;1.40;1.30;;;11.70;99.90;;;;;;5035031;28;20279;-80
2023/11/08 00:14:40;;;;;;;1.60;1.50;;;11.70;99.90;;;;;;5034614;28;20679;-80
2023/11/08 00:17:07;;;;;;;1.83;1.25;;;11.70;99.90;;;;;;5034444;28;20225;-80
2023/11/08 00:19:34;;;;;;;2.65;1.30;;;11.70;99.90;;;;;;5035082;28;20260;-80
2023/11/08 00:22:02;;;;;;;2.50;2.30;;;11.70;99.90;;;;;;5034234;28;20281;-80
2023/11/08 00:24:28;;;;;;;1.65;1.45;;;11.70;99.90;;;;;;5034742;28;20297;-80
2023/11/08 00:26:55;;;;;;;1.67;1.58;;;11.70;99.90;;;;;;5034901;28;20301;-80
2023/11/08 00:29:24;;;;;;;1.35;1.25;;;11.70;99.90;;;;;;5034325;28;20221;-78
2023/11/08 00:31:51;;;;;;;1.88;1.23;;;11.70;99.90;;;;;;5034712;28;20316;-78
2023/11/08 00:34:17;;;;;;;1.50;1.40;;;11.60;99.90;;;;;;5034142;28;20232;-78
2023/11/08 00:36:44;;;;;;;2.23;2.03;;;11.60;99.90;;;;;;5034265;28;20604;-78
2023/11/08 00:39:12;;;;;;;1.48;1.38;;;11.60;99.90;;;;;;5034114;28;20774;-78
2023/11/08 00:41:43;;;;;;;1.33;1.23;;;11.60;99.90;;;;;;5034629;28;20301;-78
2023/11/08 00:44:10;;;;;;;4.10;1.17;;;11.60;99.90;;;;;;5033982;28;20221;-79
2023/11/08 00:46:38;;;;;;;1.35;1.20;;;11.60;99.90;;;;;;5033835;28;20249;-78
2023/11/08 00:49:05;;;;;;;1.23;1.13;;;11.60;99.90;;;;;;5034206;28;20308;-78
2023/11/08 00:51:33;;;;;;;1.73;1.63;;;11.60;99.90;;;;;;5034325;28;20309;-78
2023/11/08 00:54:00;;;;;;;2.10;1.20;;;11.50;99.90;;;;;;5033755;28;20316;-78
2023/11/08 00:56:28;;;;;;;1.15;1.05;;;11.50;99.90;;;;;;5033902;28;20290;-80
2023/11/08 00:58:55;;;;;;;2.00;1.77;;;11.50;99.90;;;;;;5034243;28;20316;-78
2023/11/08 01:01:22;;;;;;;1.40;1.30;;;11.50;99.90;;;;;;5033899;28;20276;-78
2023/11/08 01:03:50;;;;;;;1.67;1.40;;;11.50;99.90;;;;;;5034474;28;20226;-78
2023/11/08 01:06:17;;;;;;;1.88;1.02;;;11.40;99.90;;;;;;5033035;28;20226;-80
2023/11/08 01:08:44;;;;;;;1.20;1.05;;;11.40;99.90;;;;;;5034003;28;20308;-80
2023/11/08 01:11:11;;;;;;;1.20;1.10;;;11.40;99.90;;;;;;5033646;28;20241;-78
2023/11/08 01:13:38;;;;;;;2.08;1.13;;;11.40;99.90;;;;;;5034163;28;20222;-78
2023/11/08 01:16:08;;;;;;;4.53;1.33;;;11.40;99.90;;;;;;5034103;28;20632;-78
2023/11/08 01:18:35;;;;;;;2.17;1.48;;;11.30;99.90;;;;;;5033775;28;20630;-79
2023/11/08 01:21:04;;;;;;;1.25;1.15;;;11.30;99.90;;;;;;5034202;28;20226;-78
2023/11/08 01:23:31;;;;;;;1.95;1.20;;;11.40;99.90;;;;;;5033498;28;20225;-79
2023/11/08 01:25:58;;;;;;;2.92;1.13;;;11.30;99.90;;;;;;5033772;28;20256;-78
2023/11/08 01:28:25;;;;;;;2.85;1.70;;;11.30;99.90;;;;;;5032405;28;20221;-80
2023/11/08 01:30:52;;;;;;;2.03;1.63;;;11.30;99.90;;;;;;5033808;28;20256;-78
2023/11/08 01:33:19;;;;;;;1.40;1.02;;;11.30;99.90;;;;;;5033069;28;20229;-78
2023/11/08 01:35:45;;;;;;;1.75;1.30;;;11.30;99.90;;;;;;5033693;28;20237;-78
2023/11/08 01:38:14;;;;;;;1.55;1.42;;;11.20;99.90;;;;;;5033083;28;20248;-80
2023/11/08 01:40:46;;;;;;;1.40;1.30;;;11.30;99.90;;;;;;5033727;28;20236;-80
2023/11/08 01:43:27;;;;;;;1.35;1.25;;;11.20;99.90;;;;;;5032686;28;20225;-80
2023/11/08 01:46:05;;;;;;;3.17;2.10;;;11.20;99.90;;;;;;5033400;28;20287;-80
2023/11/08 01:48:35;;;;;;;1.67;1.15;;;11.20;99.90;;;;;;5033220;28;20741;-80
2023/11/08 01:51:04;;;;;;;1.77;1.67;;;11.20;99.90;;;;;;5033211;28;20279;-78
2023/11/08 01:53:39;;;;;;;1.50;1.40;;;11.20;99.90;;;;;;5032891;28;20229;-80
2023/11/08 01:56:08;;;;;;;1.67;1.58;;;11.20;99.90;;;;;;5033521;28;20243;-80
2023/11/08 01:58:37;;;;;;;2.45;1.48;;;11.20;99.90;;;;;;5032958;28;20534;-81
2023/11/08 02:01:06;;;;;;;1.50;1.20;;;11.10;99.90;;;;;;5033169;28;20225;-81
2023/11/08 02:03:43;;;;;;;1.98;1.77;;;11.10;99.90;;;;;;5032151;28;20236;-81
2023/11/08 02:06:12;;;;;;;2.38;1.90;;;11.10;99.90;;;;;;5033218;28;20332;-81
2023/11/08 02:08:42;;;;;;;1.77;1.67;;;11.00;99.90;;;;;;5032965;28;20322;-81
2023/11/08 02:11:11;;;;;;;1.65;1.55;;;11.00;99.90;;;;;;5033364;28;20760;-81
2023/11/08 02:13:40;;;;;;;1.65;1.55;;;11.00;99.90;;;;;;5032822;28;20655;-81
2023/11/08 02:16:16;;;;;;;1.40;1.30;;;11.00;99.90;;;;;;5033294;28;20260;-78
2023/11/08 02:18:43;;;;;;;2.20;1.83;;;11.00;99.90;;;;;;5032908;28;20217;-78
2023/11/08 02:21:13;;;;;;;2.42;1.60;;;11.00;99.90;;;;;;5033414;28;20632;-78
2023/11/08 02:23:41;;;;;;;1.45;1.35;;;11.00;99.90;;;;;;5032620;28;20679;-78
2023/11/08 02:26:17;;;;;;;1.70;1.60;;;11.00;99.90;;;;;;5033232;28;20683;-78
2023/11/08 02:28:44;;;;;;;1.85;1.73;;;11.00;99.90;;;;;;5032778;28;21010;-80
2023/11/08 02:31:11;;;;;;;2.20;1.42;;;10.90;99.90;;;;;;5033276;28;20248;-80
2023/11/08 02:33:41;;;;;;;1.90;1.80;;;10.90;99.90;;;;;;5032883;28;20291;-78
2023/11/08 02:36:09;;;;;;;2.00;1.80;;;10.80;99.90;;;;;;5032438;28;20237;-79
2023/11/08 02:38:36;;;;;;;1.58;1.40;;;10.80;99.90;;;;;;5032615;28;20249;-80
2023/11/08 02:41:03;;;;;;;1.55;1.45;;;10.80;99.90;;;;;;5036971;28;20597;-80
2023/11/08 02:43:31;;;;;;;1.98;1.88;;;10.80;99.90;;;;;;5035857;28;20221;-80
2023/11/08 02:45:58;;;;;;;1.70;1.60;;;10.80;99.90;;;;;;5036891;28;20229;-80
2023/11/08 02:48:25;;;;;;;2.20;1.80;;;10.80;99.90;;;;;;5036110;28;20295;-80
2023/11/08 02:50:56;;;;;;;1.80;1.70;;;10.70;99.90;;;;;;5036664;28;20671;-80
2023/11/08 02:53:23;;;;;;;1.70;1.60;;;10.70;99.90;;;;;;5036323;28;20228;-80
2023/11/08 02:55:50;;;;;;;1.63;1.52;;;10.60;99.90;;;;;;5036291;28;20235;-80
2023/11/08 02:58:17;;;;;;;1.85;1.35;;;10.60;99.90;;;;;;5036568;28;20228;-80
2023/11/08 03:00:49;;;;;;;2.00;1.90;;;10.60;99.90;;;;;;5036165;28;20275;-80
2023/11/08 03:03:16;;;;;;;4.40;1.65;;;10.60;99.90;;;;;;5036853;28;20235;-80
2023/11/08 03:05:43;;;;;;;2.10;1.85;;;10.60;99.90;;;;;;5035274;28;20237;-80
2023/11/08 03:08:10;;;;;;;1.50;1.40;;;10.60;99.90;;;;;;5036419;28;20256;-80
2023/11/08 03:10:38;;;;;;;4.47;1.60;;;10.60;99.90;;;;;;5035683;28;20237;-80
2023/11/08 03:13:05;;;;;;;3.63;2.42;;;10.60;99.90;;;;;;5036331;28;20217;-80
2023/11/08 03:15:32;;;;;;;1.50;1.40;;;10.50;99.90;;;;;;5035014;28;20236;-80
2023/11/08 03:18:03;;;;;;;2.38;1.60;;;10.50;99.90;;;;;;5036509;28;20229;-78
2023/11/08 03:20:33;;;;;;;2.22;1.80;;;10.50;99.90;;;;;;5035572;28;20224;-78
2023/11/08 03:23:01;;;;;;;2.15;1.52;;;10.50;99.90;;;;;;5035894;28;20229;-78
2023/11/08 03:25:28;;;;;;;1.60;1.35;;;10.50;99.90;;;;;;5035738;28;20236;-80
2023/11/08 03:27:55;;;;;;;1.88;1.65;;;10.50;99.90;;;;;;5035982;28;20300;-80
2023/11/08 03:30:22;;;;;;;2.13;1.67;;;10.50;99.90;;;;;;5036027;28;20237;-80
2023/11/08 03:32:49;;;;;;;3.47;1.77;;;10.40;99.90;;;;;;5035574;28;20241;-80
2023/11/08 03:35:18;;;;;;;2.03;1.80;;;10.40;99.90;;;;;;5035842;28;20225;-80
2023/11/08 03:37:45;;;;;;;1.42;1.33;;;10.40;99.90;;;;;;5035530;28;20234;-80
2023/11/08 03:40:15;;;;;;;1.70;1.60;;;10.40;99.90;;;;;;5035792;28;20316;-78
2023/11/08 03:42:42;;;;;;;1.83;1.40;;;10.30;99.90;;;;;;5035230;28;20553;-78
2023/11/08 03:45:10;;;;;;;2.10;1.58;;;10.40;99.90;;;;;;5035660;28;20705;-78
2023/11/08 03:47:39;;;;;;;6.15;2.05;;;10.40;99.90;;;;;;5035529;28;20283;-78
2023/11/08 03:50:07;;;;;;;2.95;1.73;;;10.40;99.90;;;;;;5035734;28;20320;-78
2023/11/08 03:52:35;;;;;;;1.75;1.40;;;10.40;99.90;;;;;;5031652;28;20292;-78
2023/11/08 03:55:02;;;;;;;2.05;1.80;;;10.30;99.90;;;;;;5035404;28;20308;-78
2023/11/08 03:57:35;;;;;;;2.72;1.90;;;10.30;99.90;;;;;;5034972;28;20225;-78
2023/11/08 04:00:03;;;;;;;3.00;1.80;;;10.30;99.90;;;;;;5035620;28;20715;-78
2023/11/08 04:02:30;;;;;;;1.77;1.65;;;10.30;99.90;;;;;;5035134;28;20618;-78
2023/11/08 04:04:58;;;;;;;1.50;1.40;;;10.30;99.90;;;;;;5033895;28;20236;-78
2023/11/08 04:07:25;;;;;;;2.20;1.60;;;10.40;99.90;;;;;;5035474;28;20308;-78
2023/11/08 04:09:56;;;;;;;2.45;1.58;;;10.40;99.90;;;;;;5034537;28;20643;-78
2023/11/08 04:12:22;;;;;;;1.88;1.77;;;10.40;99.90;;;;;;5035083;28;20221;-78
2023/11/08 04:14:50;;;;;;;1.20;1.10;;;10.40;99.90;;;;;;5035040;28;20237;-78
2023/11/08 04:17:18;;;;;;;3.47;1.48;;;10.40;99.90;;;;;;5035207;28;20232;-78
2023/11/08 04:19:46;;;;;;;1.25;1.15;;;10.40;99.90;;;;;;5034878;28;20221;-78
2023/11/08 04:22:14;;;;;;;2.80;1.73;;;10.40;99.90;;;;;;5035084;28;20225;-78
2023/11/08 04:24:41;;;;;;;5.70;2.05;;;10.30;99.90;;;;;;5034416;28;20245;-80
2023/11/08 04:27:10;;;;;;;4.63;1.58;;;10.20;99.90;;;;;;5034901;28;20256;-81
2023/11/08 04:29:37;;;;;;;1.83;1.65;;;10.20;99.90;;;;;;5034765;28;20230;-80
2023/11/08 04:32:05;;;;;;;5.15;1.73;;;10.20;99.90;;;;;;5034862;28;20296;-78
2023/11/08 04:34:32;;;;;;;2.70;1.60;;;10.20;99.90;;;;;;5034127;28;20625;-78
2023/11/08 04:36:59;;;;;;;2.72;1.73;;;10.30;99.90;;;;;;5034653;28;20316;-78
2023/11/08 04:39:26;;;;;;;2.75;1.55;;;10.30;99.90;;;;;;5034475;28;20221;-79
2023/11/08 04:41:54;;;;;;;2.85;1.60;;;10.20;99.90;;;;;;5033950;28;20560;-78
2023/11/08 04:44:24;;;;;;;1.77;1.67;;;10.20;99.90;;;;;;5034497;28;20624;-78
2023/11/08 04:47:05;;;;;;;5.95;1.70;;;10.20;99.90;;;;;;5013030;28;20309;-79
2023/11/08 04:49:32;;;;;;;3.38;2.05;;;10.20;99.90;;;;;;5033234;28;20241;-78
2023/11/08 04:52:02;;;;;;;4.25;1.90;;;10.20;99.90;;;;;;5033502;28;20314;-78
2023/11/08 04:54:47;;;;;;;6.65;1.42;;;10.20;99.90;;;;;;5034149;28;20714;-78
2023/11/08 04:57:16;;;;;;;2.05;1.77;;;10.30;99.90;;;;;;5025723;28;20253;-80
2023/11/08 04:59:44;;;;;;;1.80;1.70;;;10.30;99.90;;;;;;5033771;28;20525;-80
2023/11/08 05:02:12;;;;;;;3.25;1.73;;;10.30;99.90;;;;;;5033040;28;20259;-80
2023/11/08 05:04:39;;;;;;;2.95;1.52;;;10.30;99.90;;;;;;5034122;28;20256;-80
2023/11/08 05:07:11;;;;;;;2.88;2.00;;;10.30;99.90;;;;;;5033665;28;20605;-78
2023/11/08 05:09:38;;;;;;;2.60;1.75;;;10.30;99.90;;;;;;5033726;28;20606;-78
2023/11/08 05:12:06;;;;;;;1.70;1.60;;;10.30;99.90;;;;;;5033205;28;20236;-78
2023/11/08 05:14:33;;;;;;;2.45;1.80;;;10.30;99.90;;;;;;5034017;28;20229;-78
2023/11/08 05:17:01;;;;;;;2.83;2.05;;;10.40;99.90;;;;;;5033057;28;20225;-79
2023/11/08 05:19:28;;;;;;;1.73;1.60;;;10.40;99.90;;;;;;5033665;28;20326;-79
2023/11/08 05:21:56;;;;;;;7.28;2.00;;;10.40;99.90;;;;;;5033357;28;20305;-79
2023/11/08 05:24:23;;;;;;;2.78;1.60;;;10.40;99.90;;;;;;5033876;28;20236;-81
2023/11/08 05:26:50;;;;;;;2.47;1.45;;;10.30;99.90;;;;;;5034104;28;20279;-80
2023/11/08 05:29:18;;;;;;;4.75;1.95;;;10.40;99.90;;;;;;5033101;28;20288;-81
2023/11/08 05:31:45;;;;;;;2.10;1.75;;;10.40;99.90;;;;;;5033604;28;20229;-80
2023/11/08 05:34:13;;;;;;;1.48;1.38;;;10.30;99.90;;;;;;5033638;28;20646;-81
2023/11/08 05:36:40;;;;;;;3.58;1.73;;;10.40;99.90;;;;;;5033550;28;20235;-81
2023/11/08 05:39:07;;;;;;;1.88;1.75;;;10.40;99.90;;;;;;5033083;28;20338;-81
2023/11/08 05:41:37;;;;;;;5.70;1.67;;;10.50;99.90;;;;;;5033808;28;20237;-80
2023/11/08 05:44:04;;;;;;;5.57;1.90;;;10.50;99.90;;;;;;5032681;28;20287;-81
2023/11/08 05:46:31;;;;;;;2.80;1.48;;;10.50;99.90;;;;;;5033427;28;20229;-79
2023/11/08 05:49:00;;;;;;;4.38;2.08;;;10.50;99.90;;;;;;5033178;28;20694;-77
2023/11/08 05:51:28;;;;;;;2.78;1.73;;;10.50;99.90;;;;;;5033349;28;20233;-79
2023/11/08 05:53:55;;;;;;;2.78;1.80;;;10.50;99.90;;;;;;5033422;28;20249;-79
2023/11/08 05:56:22;;;;;;;2.72;2.08;;;10.50;99.90;;;;;;5032369;28;20662;-79
2023/11/08 05:58:49;;;;;;;4.18;2.85;;;10.50;99.90;;;;;;5033256;28;20232;-80
2023/11/08 06:01:16;;;;;;;6.65;2.60;;;10.50;99.90;;;;;;5033164;28;20232;-81
2023/11/08 06:03:43;;;;;;;4.47;1.90;;;10.50;99.90;;;;;;5033302;28;20308;-81
2023/11/08 06:06:10;;;;;;;4.55;1.90;;;10.50;99.90;;;;;;5032566;28;20229;-81
2023/11/08 06:08:39;;;;;;;4.82;2.20;;;10.40;99.90;;;;;;5033215;28;20229;-80
2023/11/08 06:11:07;;;;;;;2.15;1.95;;;10.50;99.90;;;;;;5032088;28;20235;-81
2023/11/08 06:13:37;;;;;;;4.68;2.28;;;10.50;99.90;;;;;;5033197;28;20277;-79
2023/11/08 06:16:05;;;;;;;4.63;2.42;;;10.50;99.90;;;;;;5032180;28;20280;-81
2023/11/08 06:18:36;;;;;;;2.50;1.95;;;10.50;99.90;;;;;;5033171;28;20232;-80
2023/11/08 06:21:03;;;;;;;4.30;1.90;;;10.60;99.90;;;;;;5032410;28;20276;-81
2023/11/08 06:23:31;;;;;;;5.05;1.55;;;10.60;99.90;;;;;;5033051;28;20225;-81
2023/11/08 06:25:59;;;;;;;4.10;2.50;;;10.70;99.90;;;;;;5033220;28;20229;-80
2023/11/08 06:28:26;;;;;;;6.55;2.00;;;10.70;99.90;;;;;;5032471;28;20296;-81
2023/11/08 06:30:54;;;;;;;7.68;2.30;;;10.70;99.90;;;;;;5024356;28;20229;-80
2023/11/08 06:33:21;;;;;;;4.07;1.83;;;10.60;99.90;;;;;;5031890;28;20679;-80
2023/11/08 06:35:47;;;;;;;2.72;1.70;;;10.70;99.90;;;;;;5032791;28;20244;-80
2023/11/08 06:38:14;;;;;;;2.65;2.00;;;10.70;99.90;;;;;;5032423;28;20300;-80
2023/11/08 06:40:45;;;;;;;4.28;2.50;;;10.80;99.90;;;;;;5033065;28;20217;-80
2023/11/08 06:43:13;;;;;;;3.90;1.55;;;10.80;99.90;;;;;;5031455;28;20746;-80
2023/11/08 06:45:41;;;;;;;2.63;1.40;;;10.80;99.90;;;;;;5032794;28;20287;-80
2023/11/08 06:48:08;;;;;;;7.50;3.65;;;10.90;99.90;;;;;;5032191;28;20225;-81
2023/11/08 06:50:35;;;;;;;6.00;2.85;;;10.90;99.90;;;;;;5032612;28;20580;-79
2023/11/08 06:53:03;;;;;;;5.38;2.13;;;10.90;99.90;;;;;;5032205;28;20290;-77
2023/11/08 06:55:33;;;;;;;9.05;4.75;;;10.80;99.90;;;;;;5032092;28;20303;-80
2023/11/08 06:58:00;;;;;;;5.82;2.95;;;10.80;99.90;;;;;;5032304;28;20226;-80
2023/11/08 07:00:29;;;;;;;6.65;2.22;;;10.80;99.90;;;;;;5032512;28;20235;-79
2023/11/08 07:02:56;;;;;;;3.97;2.05;;;10.80;99.90;;;;;;5032724;28;20213;-79
2023/11/08 07:05:23;;;;;;;9.27;6.05;;;10.80;99.90;;;;;;5031841;28;20229;-80
2023/11/08 07:07:50;;;;;;;10.77;4.20;;;10.80;99.90;;;;;;5032377;28;20224;-77
2023/11/08 07:10:17;;;;;;;7.72;5.25;;;10.90;99.90;;;;;;5031483;28;20575;-78
2023/11/08 07:12:44;;;;;;;5.10;2.78;;;10.90;99.90;;;;;;5032712;28;20312;-77
2023/11/08 07:15:12;;;;;;;5.10;3.65;;;10.90;99.90;;;;;;5032226;28;20708;-78
2023/11/08 07:17:40;;;;;;;4.65;3.42;;;10.90;99.90;;;;;;5032410;28;20222;-78
2023/11/08 07:20:09;;;;;;;4.63;3.60;;;10.90;99.90;;;;;;5032974;28;20287;-81
2023/11/08 07:22:39;;;;;;;5.43;3.17;;;10.90;99.90;;;;;;5032075;28;20228;-80
2023/11/08 07:25:07;;;;;;;4.65;3.95;;;10.90;99.90;;;;;;5032463;28;20249;-79
2023/11/08 07:27:36;;;;;;;8.68;4.80;;;11.00;99.90;;;;;;5024115;28;20673;-81
2023/11/08 07:30:04;;;;;;;5.82;3.67;;;11.00;99.90;;;;;;5035980;28;20233;-79
2023/11/08 07:32:32;;;;;;;3.75;2.78;;;11.00;99.90;;;;;;5035227;28;20229;-79
2023/11/08 07:35:01;;;;;;;5.18;4.20;;;11.10;99.90;;;;;;5025459;28;20570;-79
2023/11/08 07:37:31;;;;;;;7.35;4.60;;;11.10;99.90;;;;;;5035441;28;20308;-78
2023/11/08 07:39:58;;;;;;;8.80;2.90;;;11.10;99.90;;;;;;5035594;28;20225;-79
2023/11/08 07:42:26;;;;;;;9.70;5.35;;;11.10;99.90;;;;;;5035376;28;20230;-79
2023/11/08 07:44:54;;;;;;;2.92;2.05;;;11.10;99.90;;;;;;5035675;28;20320;-79
2023/11/08 07:47:21;;;;;;;2.17;1.98;;;11.10;99.90;;;;;;5033461;28;20618;-78
2023/11/08 07:49:52;;;;;;;5.35;2.20;;;11.20;99.90;;;;;;5035945;28;20233;-80
2023/11/08 07:52:21;;;;;;;2.20;1.92;;;11.20;99.90;;;;;;5035609;28;20316;-79
2023/11/08 07:54:48;;;;;;;4.68;2.50;;;11.20;99.90;;;;;;5035562;28;20283;-81
2023/11/08 07:57:17;;;;;;;2.58;1.90;;;11.20;99.90;;;;;;5035406;28;20225;-79
2023/11/08 07:59:45;;;;;;;4.53;2.10;;;11.20;99.90;;;;;;5035708;28;20218;-80
2023/11/08 08:02:12;;;;;;;3.25;2.80;;;11.20;99.90;;;;;;5035088;28;20308;-79
2023/11/08 08:04:39;;;;;;;2.63;1.90;;;11.20;99.90;;;;;;5033887;28;20240;-79
2023/11/08 08:07:11;;;;;;;4.53;1.92;;;11.30;99.90;;;;;;5035098;28;20698;-79
2023/11/08 08:09:40;;;;;;;4.90;2.17;;;11.30;99.90;;;;;;5035378;28;20225;-80
2023/11/08 08:12:07;;;;;;;2.95;2.00;;;11.40;99.90;;;;;;5034127;28;20233;-79
2023/11/08 08:14:35;;;;;;;4.15;2.25;;;11.40;99.90;;;;;;5035343;28;20229;-79
2023/11/08 08:17:03;;;;;;;2.88;1.70;;;11.50;99.90;;;;;;5034735;28;20697;-79
2023/11/08 08:19:31;;;;;;;8.93;2.60;;;11.50;99.90;;;;;;5035125;28;20226;-79
2023/11/08 08:22:01;;;;;;;2.60;2.05;;;11.50;99.90;;;;;;5034269;28;20231;-79
2023/11/08 08:24:28;;;;;;;2.22;1.95;;;11.50;99.90;;;;;;5034388;28;20679;-79
2023/11/08 08:26:58;;;;;;;3.38;2.00;;;11.50;99.90;;;;;;5034864;28;20309;-80
2023/11/08 08:29:26;;;;;;;4.05;2.10;;;11.60;99.90;;;;;;5035026;28;20235;-79
2023/11/08 08:31:53;;;;;;;5.25;2.83;;;11.60;99.90;;;;;;5035194;28;20672;-79
2023/11/08 08:34:20;;;;;;;4.30;1.90;;;11.60;99.90;;;;;;5034568;28;20221;-79
2023/11/08 08:36:47;;;;;;;6.90;4.90;;;11.60;99.90;;;;;;5033946;28;20563;-78
2023/11/08 08:39:16;;;;;;;6.75;3.85;;;11.60;99.90;;;;;;5032323;28;20239;-78
2023/11/08 08:41:47;;;;;;;5.82;2.95;;;11.60;99.90;;;;;;5034665;28;20232;-79
2023/11/08 08:44:15;;;;;;;3.30;2.75;;;11.60;99.90;;;;;;5033369;28;20229;-80
2023/11/08 08:46:43;;;;;;;3.00;2.30;;;11.60;99.90;;;;;;5034726;28;20222;-81
2023/11/08 08:49:12;;;;;;;3.38;2.50;;;11.70;99.90;;;;;;5033857;28;20221;-78
2023/11/08 08:51:39;;;;;;;5.07;2.75;;;11.70;99.90;;;;;;5034579;28;20229;-77
2023/11/08 08:54:07;;;;;;;4.60;2.35;;;11.80;99.90;;;;;;5033514;28;20229;-77
2023/11/08 08:56:34;;;;;;;2.55;2.35;;;11.70;99.90;;;;;;5034173;28;20225;-77
2023/11/08 08:59:02;;;;;;;3.40;2.17;;;11.80;99.90;;;;;;5034018;28;20236;-78
2023/11/08 09:01:29;;;;;;;5.03;2.83;;;11.80;99.90;;;;;;5034483;28;20221;-77
2023/11/08 09:03:56;;;;;;;3.45;2.47;;;11.80;99.90;;;;;;5034312;28;20227;-77
2023/11/08 09:06:23;;;;;;;2.63;2.40;;;11.90;99.90;;;;;;5033765;28;20239;-78
2023/11/08 09:08:50;;;;;;;2.22;1.85;;;12.00;99.90;;;;;;5034062;28;20317;-78
2023/11/08 09:11:17;;;;;;;5.82;2.85;;;12.00;99.90;;;;;;5033867;28;20320;-78
2023/11/08 09:13:47;;;;;;;5.03;2.55;;;12.10;99.90;;;;;;5034194;28;20226;-78
2023/11/08 09:16:16;;;;;;;2.75;2.45;;;12.20;99.90;;;;;;5033526;28;20630;-77
2023/11/08 09:18:44;;;;;;;4.70;2.10;;;12.20;99.90;;;;;;5034209;28;20316;-77
2023/11/08 09:21:11;;;;;;;2.15;1.88;;;12.30;99.90;;;;;;5033698;28;20235;-78
2023/11/08 09:23:40;;;;;;;4.07;2.08;;;12.30;99.90;;;;;;5033954;28;20251;-78
2023/11/08 09:26:07;;;;;;;6.82;2.90;;;12.40;99.90;;;;;;5033204;28;20758;-77
2023/11/08 09:28:34;;;;;;;4.70;4.30;;;12.40;99.90;;;;;;5034200;28;20237;-78
2023/11/08 09:31:01;;;;;;;4.00;3.60;;;12.50;99.90;;;;;;5033350;28;20565;-78
2023/11/08 09:33:30;;;;;;;4.20;3.75;;;12.50;99.90;;;;;;5033762;28;20229;-78
2023/11/08 09:36:04;;;;;;;2.50;2.28;;;12.60;99.90;;;;;;5033724;28;20536;-78
2023/11/08 09:38:31;;;;;;;2.55;2.35;;;12.60;99.90;;;;;;5033377;28;20574;-78
2023/11/08 09:40:58;;;;;;;2.70;2.08;;;12.70;99.90;;;;;;5033709;28;20228;-77
2023/11/08 09:43:27;;;;;;;1.70;1.60;;;12.70;99.90;;;;;;5032483;28;20683;-78
2023/11/08 09:46:05;;;;;;;2.65;2.00;;;12.70;99.90;;;;;;5033676;28;20256;-77
2023/11/08 09:48:36;;;;;;;2.05;1.75;;;12.80;99.90;;;;;;5032218;28;20232;-78
2023/11/08 09:51:08;;;;;;;2.00;1.80;;;12.80;99.90;;;;;;5023367;28;20276;-79
2023/11/08 09:53:36;;;;;;;1.88;1.63;;;12.80;99.90;;;;;;5022241;28;20551;-78
2023/11/08 09:56:06;;;;;;;2.38;2.13;;;12.80;99.90;;;;;;5033312;28;20257;-78
2023/11/08 09:58:34;;;;;;;3.00;2.40;;;12.80;99.90;;;;;;5032508;28;20287;-78
2023/11/08 10:01:02;;;;;;;3.22;1.90;;;12.80;99.90;;;;;;5033758;28;20228;-77
2023/11/08 10:03:31;;;;;;;3.35;2.50;;;12.80;99.90;;;;;;5032902;28;20236;-77
2023/11/08 10:06:01;;;;;;;2.40;2.20;;;12.80;99.90;;;;;;5032800;28;20240;-77
2023/11/08 10:08:38;;;;;;;2.10;1.90;;;12.90;99.90;;;;;;5022472;28;20304;-77
2023/11/08 10:11:06;;;;;;;4.28;2.22;;;12.90;99.90;;;;;;5032926;28;20237;-77
2023/11/08 10:14:07;;;;;;;2.97;2.67;;;12.90;99.90;;;;;;5032484;28;20237;-78
2023/11/08 10:16:48;;;;;;;2.90;2.30;;;13.00;99.90;;;;;;5024332;28;20282;-77
2023/11/08 10:19:15;;;;;;;2.78;2.15;;;13.00;99.90;;;;;;5033247;28;20259;-77
2023/11/08 10:21:48;;;;;;;3.53;2.38;;;13.10;99.90;;;;;;5032315;28;20228;-77
2023/11/08 10:24:18;;;;;;;3.13;2.15;;;13.10;99.90;;;;;;5032890;28;20659;-77
2023/11/08 10:26:46;;;;;;;2.22;1.88;;;13.10;99.90;;;;;;5032854;28;20228;-78
2023/11/08 10:29:13;;;;;;;7.68;2.78;;;13.00;99.90;;;;;;5033238;28;20224;-78
2023/11/08 10:31:41;;;;;;;2.72;2.53;;;13.00;99.90;;;;;;5032526;28;20306;-78
2023/11/08 10:34:12;;;;;;;2.88;2.25;;;13.00;99.90;;;;;;5033021;28;20225;-78
2023/11/08 10:36:46;;;;;;;3.83;2.50;;;13.10;99.90;;;;;;5032521;28;20268;-79
2023/11/08 10:39:15;;;;;;;4.25;2.50;;;13.10;99.90;;;;;;5033140;28;20820;-80
2023/11/08 10:41:42;;;;;;;6.68;2.60;;;13.10;99.90;;;;;;5033379;28;20294;-79
2023/11/08 10:44:13;;;;;;;2.35;2.03;;;13.10;99.90;;;;;;5033155;28;20672;-80
2023/11/08 10:46:42;;;;;;;5.75;2.25;;;13.20;99.90;;;;;;5032496;28;20279;-80
2023/11/08 10:49:11;;;;;;;2.40;2.17;;;13.20;99.90;;;;;;5033251;28;20287;-80
2023/11/08 10:51:39;;;;;;;2.10;1.90;;;13.20;99.90;;;;;;5032510;28;20573;-79
2023/11/08 10:54:07;;;;;;;5.57;4.78;;;13.30;99.90;;;;;;5033056;28;20460;-78
2023/11/08 10:56:37;;;;;;;4.30;3.37;;;13.30;99.90;;;;;;5032374;28;20241;-78
2023/11/08 10:59:09;;;;;;;6.15;3.42;;;13.20;99.90;;;;;;5033213;28;20526;-78
2023/11/08 11:01:38;;;;;;;5.38;3.83;;;13.20;99.90;;;;;;5034693;28;20221;-78
2023/11/08 11:04:09;;;;;;;2.67;2.47;;;13.20;99.90;;;;;;5036450;28;20229;-78
2023/11/08 11:06:39;;;;;;;6.03;2.85;;;13.20;99.90;;;;;;5036298;28;20316;-79
2023/11/08 11:09:10;;;;;;;5.80;2.90;;;13.20;99.90;;;;;;5036735;28;20671;-77
2023/11/08 11:11:42;;;;;;;4.80;2.40;;;13.20;99.90;;;;;;5036090;28;20482;-77
2023/11/08 11:14:20;;;;;;;5.68;2.60;;;13.30;99.90;;;;;;5036755;28;20464;-78
2023/11/08 11:16:53;;;;;;;3.20;2.90;;;13.30;99.90;;;;;;5035526;28;20251;-78
2023/11/08 11:19:24;;;;;;;2.40;2.20;;;13.40;99.90;;;;;;5036298;28;20312;-78
2023/11/08 11:21:56;;;;;;;3.00;2.53;;;13.40;99.90;;;;;;5035499;28;20221;-78
2023/11/08 11:24:40;;;;;;;2.90;2.70;;;13.50;99.90;;;;;;5035212;28;20241;-77
2023/11/08 11:27:09;;;;;;;5.03;3.70;;;13.50;99.90;;;;;;5035580;28;20470;-78
2023/11/08 11:29:36;;;;;;;4.35;3.33;;;13.50;99.90;;;;;;5036163;28;20467;-77
2023/11/08 11:32:06;;;;;;;3.97;2.80;;;13.50;99.90;;;;;;5035838;28;20309;-77
2023/11/08 11:34:44;;;;;;;2.70;2.20;;;13.50;99.90;;;;;;5035495;28;20586;-78
2023/11/08 11:37:16;;;;;;;2.67;1.90;;;13.50;99.90;;;;;;5035592;28;20873;-78
2023/11/08 11:39:45;;;;;;;3.10;1.70;;;13.60;99.90;;;;;;5035471;28;20543;-78
2023/11/08 11:42:36;;;;;;;2.25;2.10;;;13.60;99.90;;;;;;5034961;28;20467;-78
2023/11/08 11:45:08;;;;;;;2.10;1.90;;;13.60;99.90;;;;;;5024984;28;20241;-78
2023/11/08 11:47:36;;;;;;;2.83;2.03;;;13.60;99.90;;;;;;5035512;28;20456;-79
2023/11/08 11:50:05;;;;;;;4.07;2.30;;;13.70;99.90;;;;;;5035945;28;20221;-79
2023/11/08 11:52:35;;;;;;;1.80;1.50;;;13.60;99.90;;;;;;5035207;28;20475;-79
2023/11/08 11:55:04;;;;;;;2.60;2.10;;;13.70;99.90;;;;;;5035561;28;20472;-79
2023/11/08 11:57:32;;;;;;;3.70;2.17;;;13.70;99.90;;;;;;5034773;28;20814;-81
2023/11/08 12:00:02;;;;;;;1.90;1.80;;;13.70;99.90;;;;;;5035469;28;20551;-79
2023/11/08 12:02:29;;;;;;;2.03;1.92;;;13.70;99.90;;;;;;5034365;28;20500;-79
2023/11/08 12:05:12;;;;;;;1.90;1.53;;;13.70;99.90;;;;;;5013078;28;20230;-79
2023/11/08 12:07:40;;;;;;;4.32;2.00;;;13.70;99.90;;;;;;5035288;28;20456;-79
2023/11/08 12:10:18;;;;;;;2.53;1.77;;;13.60;99.90;;;;;;5033863;28;20612;-79
2023/11/08 12:12:44;;;;;;;4.80;2.40;;;13.60;99.90;;;;;;5034392;28;20988;-78
2023/11/08 12:15:15;;;;;;;2.40;2.00;;;13.60;99.90;;;;;;5034871;28;20970;-79
2023/11/08 12:17:47;;;;;;;3.07;2.43;;;13.60;99.90;;;;;;5035381;28;20482;-78
2023/11/08 12:20:14;;;;;;;2.47;2.20;;;13.60;99.90;;;;;;5032788;28;20575;-81
2023/11/08 12:22:48;;;;;;;3.37;1.70;;;13.60;99.90;;;;;;5035265;28;20551;-80
2023/11/08 12:25:18;;;;;;;3.20;1.80;;;13.60;99.90;;;;;;5033962;28;20472;-80
2023/11/08 12:27:45;;;;;;;2.83;1.60;;;13.60;99.90;;;;;;5034976;28;21085;-80
2023/11/08 12:30:12;;;;;;;1.90;1.60;;;13.60;99.90;;;;;;5034235;28;20228;-80
2023/11/08 12:32:40;;;;;;;2.20;1.60;;;13.60;99.90;;;;;;5034740;28;21040;-81
2023/11/08 12:35:07;;;;;;;1.60;1.50;;;13.60;99.90;;;;;;5033944;28;20480;-81
2023/11/08 12:37:35;;;;;;;1.30;1.20;;;13.60;99.90;;;;;;5034544;28;20256;-81
2023/11/08 12:40:33;;;;;;;1.27;1.17;;;13.60;99.90;;;;;;5034232;28;20484;-80
2023/11/08 12:43:11;;;;;;;3.03;1.90;;;13.60;99.90;;;;;;5031695;28;20950;-79
2023/11/08 12:45:40;;;;;;;2.22;1.60;;;13.60;99.90;;;;;;5035162;28;20303;-79
2023/11/08 12:48:09;;;;;;;2.15;1.95;;;13.50;99.90;;;;;;5034467;28;20316;-79
2023/11/08 12:50:36;;;;;;;2.93;2.73;;;13.50;99.90;;;;;;5034833;28;20221;-79
2023/11/08 12:53:05;;;;;;;3.30;2.07;;;13.50;99.90;;;;;;5034386;28;20468;-79
2023/11/08 12:55:40;;;;;;;3.90;1.67;;;13.50;99.90;;;;;;5034323;28;20480;-81
2023/11/08 12:58:27;;;;;;;1.60;1.50;;;13.50;99.90;;;;;;5033924;28;20275;-81